sensor_id;sensor_type;location;lat;lon;timestamp;temperature;humidity
1391;DHT22;690;51.454;7.194;2022-09-27T00:00:30;11.90;1.00
1391;DHT22;690;51.454;7.194;2022-09-27T00:02:57;11.90;1.00
1391;DHT22;690;51.454;7.194;2022-09-27T00:05:26;11.90;1.00
1391;DHT22;690;51.454;7.194;2022-09-27T00:07:53;11.90;1.00
1391;DHT22;690;51.454;7.194;2022-09-27T00:10:19;11.90;1.00
1391;DHT22;690;51.454;7.194;2022-09-27T00:12:46;11.90;1.00
1391;DHT22;690;51.454;7.194;2022-09-27T00:15:14;11.80;1.00
1391;DHT22;690;51.454;7.194;2022-09-27T00:17:41;11.90;1.00
1391;DHT22;690;51.454;7.194;2022-09-27T00:20:08;11.90;1.00
1391;DHT22;690;51.454;7.194;2022-09-27T00:22:37;11.90;1.00
1391;DHT22;690;51.454;7.194;2022-09-27T00:25:04;11.80;1.00
1391;DHT22;690;51.454;7.194;2022-09-27T00:27:32;11.80;1.00
1391;DHT22;690;51.454;7.194;2022-09-27T00:29:59;11.70;1.00
1391;DHT22;690;51.454;7.194;2022-09-27T00:32:26;11.70;1.00
1391;DHT22;690;51.454;7.194;2022-09-27T00:34:53;11.70;1.00
1391;DHT22;690;51.454;7.194;2022-09-27T00:37:20;11.70;1.00
1391;DHT22;690;51.454;7.194;2022-09-27T00:39:49;11.70;1.00
1391;DHT22;690;51.454;7.194;2022-09-27T00:42:16;11.80;1.00
1391;DHT22;690;51.454;7.194;2022-09-27T00:45:06;11.80;1.00
1391;DHT22;690;51.454;7.194;2022-09-27T00:47:41;11.90;1.00
1391;DHT22;690;51.454;7.194;2022-09-27T00:50:18;11.90;1.00
1391;DHT22;690;51.454;7.194;2022-09-27T00:52:49;11.80;1.00
1391;DHT22;690;51.454;7.194;2022-09-27T00:55:25;11.80;1.00
1391;DHT22;690;51.454;7.194;2022-09-27T00:57:55;11.80;1.00
1391;DHT22;690;51.454;7.194;2022-09-27T01:00:23;11.80;1.00
1391;DHT22;690;51.454;7.194;2022-09-27T01:02:52;11.80;1.00
1391;DHT22;690;51.454;7.194;2022-09-27T01:05:23;11.80;1.00
1391;DHT22;690;51.454;7.194;2022-09-27T01:07:51;11.80;1.00
1391;DHT22;690;51.454;7.194;2022-09-27T01:10:22;11.80;1.00
1391;DHT22;690;51.454;7.194;2022-09-27T01:12:57;11.80;1.00
1391;DHT22;690;51.454;7.194;2022-09-27T01:15:35;11.80;1.00
1391;DHT22;690;51.454;7.194;2022-09-27T01:18:18;11.70;1.00
1391;DHT22;690;51.454;7.194;2022-09-27T01:21:10;11.70;1.00
1391;DHT22;690;51.454;7.194;2022-09-27T01:23:59;11.80;1.00
1391;DHT22;690;51.454;7.194;2022-09-27T01:26:59;11.70;1.00
1391;DHT22;690;51.454;7.194;2022-09-27T01:29:37;11.70;1.00
1391;DHT22;690;51.454;7.194;2022-09-27T01:32:13;11.70;1.00
1391;DHT22;690;51.454;7.194;2022-09-27T01:34:44;11.70;1.00
1391;DHT22;690;51.454;7.194;2022-09-27T01:37:18;11.70;1.00
1391;DHT22;690;51.454;7.194;2022-09-27T01:39:51;11.70;1.00
1391;DHT22;690;51.454;7.194;2022-09-27T01:42:27;11.70;1.00
1391;DHT22;690;51.454;7.194;2022-09-27T01:45:01;11.70;1.00
1391;DHT22;690;51.454;7.194;2022-09-27T01:47:34;11.70;1.00
1391;DHT22;690;51.454;7.194;2022-09-27T01:50:06;11.70;1.00
1391;DHT22;690;51.454;7.194;2022-09-27T01:52:38;11.80;1.00
1391;DHT22;690;51.454;7.194;2022-09-27T01:55:07;11.80;1.00
1391;DHT22;690;51.454;7.194;2022-09-27T01:57:37;11.80;1.00
1391;DHT22;690;51.454;7.194;2022-09-27T02:00:08;11.80;1.00
1391;DHT22;690;51.454;7.194;2022-09-27T02:02:39;11.80;1.00
1391;DHT22;690;51.454;7.194;2022-09-27T02:05:10;11.90;1.00
1391;DHT22;690;51.454;7.194;2022-09-27T02:07:46;11.90;1.00
1391;DHT22;690;51.454;7.194;2022-09-27T02:10:16;11.80;1.00
1391;DHT22;690;51.454;7.194;2022-09-27T02:12:50;11.80;1.00
1391;DHT22;690;51.454;7.194;2022-09-27T02:15:18;11.90;1.00
1391;DHT22;690;51.454;7.194;2022-09-27T02:17:55;11.90;1.00
1391;DHT22;690;51.454;7.194;2022-09-27T02:20:28;11.80;1.00
1391;DHT22;690;51.454;7.194;2022-09-27T02:23:00;11.80;1.00
1391;DHT22;690;51.454;7.194;2022-09-27T02:25:37;11.90;1.00
1391;DHT22;690;51.454;7.194;2022-09-27T02:28:13;11.90;1.00
1391;DHT22;690;51.454;7.194;2022-09-27T02:30:44;11.80;1.00
1391;DHT22;690;51.454;7.194;2022-09-27T02:33:12;11.90;1.00
1391;DHT22;690;51.454;7.194;2022-09-27T02:35:39;11.90;1.00
1391;DHT22;690;51.454;7.194;2022-09-27T02:38:07;11.90;1.00
1391;DHT22;690;51.454;7.194;2022-09-27T02:40:35;11.90;1.00
1391;DHT22;690;51.454;7.194;2022-09-27T02:43:08;11.90;1.00
1391;DHT22;690;51.454;7.194;2022-09-27T02:45:43;11.90;1.00
1391;DHT22;690;51.454;7.194;2022-09-27T02:48:19;11.90;1.00
1391;DHT22;690;51.454;7.194;2022-09-27T02:51:12;11.90;1.00
1391;DHT22;690;51.454;7.194;2022-09-27T02:53:54;11.90;1.00
1391;DHT22;690;51.454;7.194;2022-09-27T02:56:32;11.90;1.00
1391;DHT22;690;51.454;7.194;2022-09-27T02:59:07;12.00;1.00
1391;DHT22;690;51.454;7.194;2022-09-27T03:01:40;12.00;1.00
1391;DHT22;690;51.454;7.194;2022-09-27T03:04:16;11.90;1.00
1391;DHT22;690;51.454;7.194;2022-09-27T03:06:45;12.00;1.00
1391;DHT22;690;51.454;7.194;2022-09-27T03:09:17;12.00;1.00
1391;DHT22;690;51.454;7.194;2022-09-27T03:11:44;12.00;1.00
1391;DHT22;690;51.454;7.194;2022-09-27T03:14:11;11.90;1.00
1391;DHT22;690;51.454;7.194;2022-09-27T03:16:38;11.90;1.00
1391;DHT22;690;51.454;7.194;2022-09-27T03:19:05;12.00;1.00
1391;DHT22;690;51.454;7.194;2022-09-27T03:21:34;11.90;1.00
1391;DHT22;690;51.454;7.194;2022-09-27T03:24:01;11.90;1.00
1391;DHT22;690;51.454;7.194;2022-09-27T03:26:28;11.90;1.00
1391;DHT22;690;51.454;7.194;2022-09-27T03:28:55;11.90;1.00
1391;DHT22;690;51.454;7.194;2022-09-27T03:31:22;11.90;1.00
1391;DHT22;690;51.454;7.194;2022-09-27T03:33:49;11.90;1.00
1391;DHT22;690;51.454;7.194;2022-09-27T03:36:16;11.80;1.00
1391;DHT22;690;51.454;7.194;2022-09-27T03:38:45;11.80;1.00
1391;DHT22;690;51.454;7.194;2022-09-27T03:41:12;11.90;1.00
1391;DHT22;690;51.454;7.194;2022-09-27T03:43:38;11.80;1.00
1391;DHT22;690;51.454;7.194;2022-09-27T03:46:06;11.80;1.00
1391;DHT22;690;51.454;7.194;2022-09-27T03:48:33;11.80;1.00
1391;DHT22;690;51.454;7.194;2022-09-27T03:50:59;11.80;1.00
1391;DHT22;690;51.454;7.194;2022-09-27T03:53:26;11.70;1.00
1391;DHT22;690;51.454;7.194;2022-09-27T03:55:55;11.70;1.00
1391;DHT22;690;51.454;7.194;2022-09-27T03:58:22;11.70;1.00
1391;DHT22;690;51.454;7.194;2022-09-27T04:00:49;11.60;1.00
1391;DHT22;690;51.454;7.194;2022-09-27T04:03:16;11.60;1.00
1391;DHT22;690;51.454;7.194;2022-09-27T04:05:44;11.70;1.00
1391;DHT22;690;51.454;7.194;2022-09-27T04:08:11;11.70;1.00
1391;DHT22;690;51.454;7.194;2022-09-27T04:10:39;11.70;1.00
1391;DHT22;690;51.454;7.194;2022-09-27T04:13:09;11.70;1.00
1391;DHT22;690;51.454;7.194;2022-09-27T04:15:36;11.70;1.00
1391;DHT22;690;51.454;7.194;2022-09-27T04:18:04;11.70;1.00
1391;DHT22;690;51.454;7.194;2022-09-27T04:20:31;11.70;1.00
1391;DHT22;690;51.454;7.194;2022-09-27T04:22:58;11.60;1.00
1391;DHT22;690;51.454;7.194;2022-09-27T04:25:25;11.60;1.00
1391;DHT22;690;51.454;7.194;2022-09-27T04:27:52;11.60;1.00
1391;DHT22;690;51.454;7.194;2022-09-27T04:30:21;11.60;1.00
1391;DHT22;690;51.454;7.194;2022-09-27T04:32:51;11.60;1.00
1391;DHT22;690;51.454;7.194;2022-09-27T04:35:18;11.60;1.00
1391;DHT22;690;51.454;7.194;2022-09-27T04:38:02;11.60;1.00
1391;DHT22;690;51.454;7.194;2022-09-27T04:40:32;11.60;1.00
1391;DHT22;690;51.454;7.194;2022-09-27T04:43:00;11.60;1.00
1391;DHT22;690;51.454;7.194;2022-09-27T04:45:30;11.60;1.00
1391;DHT22;690;51.454;7.194;2022-09-27T04:47:57;11.60;1.00
1391;DHT22;690;51.454;7.194;2022-09-27T04:50:24;11.70;1.00
1391;DHT22;690;51.454;7.194;2022-09-27T04:52:52;11.70;1.00
1391;DHT22;690;51.454;7.194;2022-09-27T04:55:20;11.70;1.00
1391;DHT22;690;51.454;7.194;2022-09-27T04:57:48;11.70;1.00
1391;DHT22;690;51.454;7.194;2022-09-27T05:00:16;11.70;1.00
1391;DHT22;690;51.454;7.194;2022-09-27T05:02:45;11.70;1.00
1391;DHT22;690;51.454;7.194;2022-09-27T05:05:13;11.80;1.00
1391;DHT22;690;51.454;7.194;2022-09-27T05:07:40;11.70;1.00
1391;DHT22;690;51.454;7.194;2022-09-27T05:10:08;11.80;1.00
1391;DHT22;690;51.454;7.194;2022-09-27T05:12:35;11.80;1.00
1391;DHT22;690;51.454;7.194;2022-09-27T05:15:03;11.80;1.00
1391;DHT22;690;51.454;7.194;2022-09-27T05:17:30;11.90;1.00
1391;DHT22;690;51.454;7.194;2022-09-27T05:19:58;11.90;1.00
1391;DHT22;690;51.454;7.194;2022-09-27T05:22:25;12.00;1.00
1391;DHT22;690;51.454;7.194;2022-09-27T05:24:52;12.00;1.00
1391;DHT22;690;51.454;7.194;2022-09-27T05:27:19;12.00;1.00
1391;DHT22;690;51.454;7.194;2022-09-27T05:29:47;12.00;1.00
1391;DHT22;690;51.454;7.194;2022-09-27T05:32:14;12.00;1.00
1391;DHT22;690;51.454;7.194;2022-09-27T05:34:41;11.90;1.00
1391;DHT22;690;51.454;7.194;2022-09-27T05:37:10;11.80;1.00
1391;DHT22;690;51.454;7.194;2022-09-27T05:39:37;11.80;1.00
1391;DHT22;690;51.454;7.194;2022-09-27T05:42:04;11.70;1.00
1391;DHT22;690;51.454;7.194;2022-09-27T05:44:32;11.70;1.00
1391;DHT22;690;51.454;7.194;2022-09-27T05:47:00;11.70;1.00
1391;DHT22;690;51.454;7.194;2022-09-27T05:49:28;11.80;1.00
1391;DHT22;690;51.454;7.194;2022-09-27T05:51:56;11.80;1.00
1391;DHT22;690;51.454;7.194;2022-09-27T05:54:24;11.80;1.00
1391;DHT22;690;51.454;7.194;2022-09-27T05:56:53;11.80;1.00
1391;DHT22;690;51.454;7.194;2022-09-27T05:59:23;11.80;1.00
1391;DHT22;690;51.454;7.194;2022-09-27T06:01:51;11.70;1.00
1391;DHT22;690;51.454;7.194;2022-09-27T06:04:18;11.70;1.00
1391;DHT22;690;51.454;7.194;2022-09-27T06:06:46;11.80;1.00
1391;DHT22;690;51.454;7.194;2022-09-27T06:09:14;11.80;1.00
1391;DHT22;690;51.454;7.194;2022-09-27T06:11:43;11.80;1.00
1391;DHT22;690;51.454;7.194;2022-09-27T06:14:11;11.80;1.00
1391;DHT22;690;51.454;7.194;2022-09-27T06:16:38;11.80;1.00
1391;DHT22;690;51.454;7.194;2022-09-27T06:19:05;11.80;1.00
1391;DHT22;690;51.454;7.194;2022-09-27T06:21:32;11.70;1.00
1391;DHT22;690;51.454;7.194;2022-09-27T06:24:00;11.80;1.00
1391;DHT22;690;51.454;7.194;2022-09-27T06:26:27;11.70;1.00
1391;DHT22;690;51.454;7.194;2022-09-27T06:28:55;11.70;1.00
1391;DHT22;690;51.454;7.194;2022-09-27T06:31:22;11.80;1.00
1391;DHT22;690;51.454;7.194;2022-09-27T06:33:49;11.80;1.00
1391;DHT22;690;51.454;7.194;2022-09-27T06:36:16;11.80;1.00
1391;DHT22;690;51.454;7.194;2022-09-27T06:38:43;11.80;1.00
1391;DHT22;690;51.454;7.194;2022-09-27T06:41:12;11.80;1.00
1391;DHT22;690;51.454;7.194;2022-09-27T06:43:39;11.70;1.00
1391;DHT22;690;51.454;7.194;2022-09-27T06:46:08;11.70;1.00
1391;DHT22;690;51.454;7.194;2022-09-27T06:48:35;11.70;1.00
1391;DHT22;690;51.454;7.194;2022-09-27T06:51:04;11.80;1.00
1391;DHT22;690;51.454;7.194;2022-09-27T06:53:31;11.70;1.00
1391;DHT22;690;51.454;7.194;2022-09-27T06:55:58;11.70;1.00
1391;DHT22;690;51.454;7.194;2022-09-27T06:58:26;11.70;1.00
1391;DHT22;690;51.454;7.194;2022-09-27T07:01:12;11.80;1.00
1391;DHT22;690;51.454;7.194;2022-09-27T07:03:39;11.80;1.00
1391;DHT22;690;51.454;7.194;2022-09-27T07:06:15;11.80;1.00
1391;DHT22;690;51.454;7.194;2022-09-27T07:08:43;11.90;1.00
1391;DHT22;690;51.454;7.194;2022-09-27T07:11:10;11.90;1.00
1391;DHT22;690;51.454;7.194;2022-09-27T07:13:37;11.90;1.00
1391;DHT22;690;51.454;7.194;2022-09-27T07:16:09;11.80;1.00
1391;DHT22;690;51.454;7.194;2022-09-27T07:18:39;11.80;1.00
1391;DHT22;690;51.454;7.194;2022-09-27T07:21:06;11.80;1.00
1391;DHT22;690;51.454;7.194;2022-09-27T07:23:34;11.80;1.00
1391;DHT22;690;51.454;7.194;2022-09-27T07:26:02;11.90;1.00
1391;DHT22;690;51.454;7.194;2022-09-27T07:28:32;11.90;1.00
1391;DHT22;690;51.454;7.194;2022-09-27T07:30:59;11.80;1.00
1391;DHT22;690;51.454;7.194;2022-09-27T07:33:27;11.90;1.00
1391;DHT22;690;51.454;7.194;2022-09-27T07:35:55;11.90;1.00
1391;DHT22;690;51.454;7.194;2022-09-27T07:38:22;11.90;1.00
1391;DHT22;690;51.454;7.194;2022-09-27T07:40:49;11.90;1.00
1391;DHT22;690;51.454;7.194;2022-09-27T07:43:16;11.90;1.00
1391;DHT22;690;51.454;7.194;2022-09-27T07:45:44;11.90;1.00
1391;DHT22;690;51.454;7.194;2022-09-27T07:48:13;11.90;1.00
1391;DHT22;690;51.454;7.194;2022-09-27T07:50:40;11.90;1.00
1391;DHT22;690;51.454;7.194;2022-09-27T07:53:09;11.90;1.00
1391;DHT22;690;51.454;7.194;2022-09-27T07:55:38;11.90;1.00
1391;DHT22;690;51.454;7.194;2022-09-27T07:58:06;11.90;1.00
1391;DHT22;690;51.454;7.194;2022-09-27T08:00:33;11.90;1.00
1391;DHT22;690;51.454;7.194;2022-09-27T08:03:03;11.90;1.00
1391;DHT22;690;51.454;7.194;2022-09-27T08:05:32;12.00;1.00
1391;DHT22;690;51.454;7.194;2022-09-27T08:08:00;12.10;1.00
1391;DHT22;690;51.454;7.194;2022-09-27T08:10:29;12.10;1.00
1391;DHT22;690;51.454;7.194;2022-09-27T08:12:56;12.20;99.90
1391;DHT22;690;51.454;7.194;2022-09-27T08:15:24;12.30;99.90
1391;DHT22;690;51.454;7.194;2022-09-27T08:17:53;12.30;99.90
1391;DHT22;690;51.454;7.194;2022-09-27T08:20:20;12.40;99.90
1391;DHT22;690;51.454;7.194;2022-09-27T08:22:47;12.40;99.90
1391;DHT22;690;51.454;7.194;2022-09-27T08:25:14;12.50;99.90
1391;DHT22;690;51.454;7.194;2022-09-27T08:27:43;12.60;99.90
1391;DHT22;690;51.454;7.194;2022-09-27T08:30:20;12.60;99.90
1391;DHT22;690;51.454;7.194;2022-09-27T08:32:47;12.70;99.90
1391;DHT22;690;51.454;7.194;2022-09-27T08:35:14;12.70;99.90
1391;DHT22;690;51.454;7.194;2022-09-27T08:37:41;12.70;99.90
1391;DHT22;690;51.454;7.194;2022-09-27T08:40:12;12.80;1.00
1391;DHT22;690;51.454;7.194;2022-09-27T08:42:45;12.80;24.00
1391;DHT22;690;51.454;7.194;2022-09-27T08:45:17;12.90;5.30
1391;DHT22;690;51.454;7.194;2022-09-27T08:47:50;13.00;40.20
1391;DHT22;690;51.454;7.194;2022-09-27T08:50:24;13.10;81.90
1391;DHT22;690;51.454;7.194;2022-09-27T08:52:57;13.30;1.00
1391;DHT22;690;51.454;7.194;2022-09-27T08:55:31;13.50;99.90
1391;DHT22;690;51.454;7.194;2022-09-27T08:58:08;13.60;1.00
1391;DHT22;690;51.454;7.194;2022-09-27T09:00:38;13.60;99.90
1391;DHT22;690;51.454;7.194;2022-09-27T09:03:10;13.60;1.00
1391;DHT22;690;51.454;7.194;2022-09-27T09:05:47;13.70;99.90
1391;DHT22;690;51.454;7.194;2022-09-27T09:08:25;13.70;61.90
1391;DHT22;690;51.454;7.194;2022-09-27T09:11:03;13.70;1.00
1391;DHT22;690;51.454;7.194;2022-09-27T09:14:12;13.80;99.90
1391;DHT22;690;51.454;7.194;2022-09-27T09:16:47;13.70;1.00
1391;DHT22;690;51.454;7.194;2022-09-27T09:19:40;13.60;1.00
1391;DHT22;690;51.454;7.194;2022-09-27T09:22:20;13.60;1.00
1391;DHT22;690;51.454;7.194;2022-09-27T09:27:52;13.50;1.00
1391;DHT22;690;51.454;7.194;2022-09-27T09:30:23;13.50;1.00
1391;DHT22;690;51.454;7.194;2022-09-27T09:33:01;13.50;1.00
1391;DHT22;690;51.454;7.194;2022-09-27T09:35:33;13.50;1.00
1391;DHT22;690;51.454;7.194;2022-09-27T09:38:07;13.60;1.00
1391;DHT22;690;51.454;7.194;2022-09-27T09:40:40;13.60;1.00
1391;DHT22;690;51.454;7.194;2022-09-27T09:43:12;13.70;1.00
1391;DHT22;690;51.454;7.194;2022-09-27T09:45:45;13.70;1.00
1391;DHT22;690;51.454;7.194;2022-09-27T09:48:18;13.70;1.00
1391;DHT22;690;51.454;7.194;2022-09-27T09:50:50;13.80;1.00
1391;DHT22;690;51.454;7.194;2022-09-27T09:53:22;13.80;1.00
1391;DHT22;690;51.454;7.194;2022-09-27T09:55:54;13.80;99.90
1391;DHT22;690;51.454;7.194;2022-09-27T09:58:27;13.70;99.90
1391;DHT22;690;51.454;7.194;2022-09-27T10:00:59;13.70;99.90
1391;DHT22;690;51.454;7.194;2022-09-27T10:03:31;13.70;99.90
1391;DHT22;690;51.454;7.194;2022-09-27T10:05:58;13.70;99.90
1391;DHT22;690;51.454;7.194;2022-09-27T10:08:25;13.60;99.90
1391;DHT22;690;51.454;7.194;2022-09-27T10:10:52;13.70;1.00
1391;DHT22;690;51.454;7.194;2022-09-27T10:13:20;13.80;1.00
1391;DHT22;690;51.454;7.194;2022-09-27T10:15:52;14.00;1.00
1391;DHT22;690;51.454;7.194;2022-09-27T10:18:22;14.10;99.90
1391;DHT22;690;51.454;7.194;2022-09-27T10:20:54;14.10;99.90
1391;DHT22;690;51.454;7.194;2022-09-27T10:23:22;14.10;99.90
1391;DHT22;690;51.454;7.194;2022-09-27T10:25:53;14.00;99.90
1391;DHT22;690;51.454;7.194;2022-09-27T10:28:42;13.90;99.90
1391;DHT22;690;51.454;7.194;2022-09-27T10:31:13;13.80;99.90
1391;DHT22;690;51.454;7.194;2022-09-27T10:33:51;13.70;99.90
1391;DHT22;690;51.454;7.194;2022-09-27T10:36:24;13.70;99.90
1391;DHT22;690;51.454;7.194;2022-09-27T10:38:52;13.60;99.90
1391;DHT22;690;51.454;7.194;2022-09-27T10:41:23;13.60;99.90
1391;DHT22;690;51.454;7.194;2022-09-27T10:43:50;13.50;99.90
1391;DHT22;690;51.454;7.194;2022-09-27T10:46:24;13.60;99.90
1391;DHT22;690;51.454;7.194;2022-09-27T10:49:08;13.60;1.00
1391;DHT22;690;51.454;7.194;2022-09-27T10:51:37;13.70;99.90
1391;DHT22;690;51.454;7.194;2022-09-27T10:54:04;13.70;99.90
1391;DHT22;690;51.454;7.194;2022-09-27T10:56:33;13.60;99.90
1391;DHT22;690;51.454;7.194;2022-09-27T10:59:01;13.50;99.90
1391;DHT22;690;51.454;7.194;2022-09-27T11:01:39;13.40;99.90
1391;DHT22;690;51.454;7.194;2022-09-27T11:04:18;13.30;1.00
1391;DHT22;690;51.454;7.194;2022-09-27T11:06:45;13.30;1.00
1391;DHT22;690;51.454;7.194;2022-09-27T11:09:19;13.30;1.00
1391;DHT22;690;51.454;7.194;2022-09-27T11:11:48;13.30;1.00
1391;DHT22;690;51.454;7.194;2022-09-27T11:14:21;13.40;1.00
1391;DHT22;690;51.454;7.194;2022-09-27T11:17:04;13.40;1.00
1391;DHT22;690;51.454;7.194;2022-09-27T11:19:53;13.50;91.70
1391;DHT22;690;51.454;7.194;2022-09-27T11:22:40;13.60;99.90
1391;DHT22;690;51.454;7.194;2022-09-27T11:25:15;13.80;26.40
1391;DHT22;690;51.454;7.194;2022-09-27T11:27:53;13.90;2.90
1391;DHT22;690;51.454;7.194;2022-09-27T11:30:22;14.00;1.00
1391;DHT22;690;51.454;7.194;2022-09-27T11:33:10;14.00;1.00
1391;DHT22;690;51.454;7.194;2022-09-27T11:35:56;14.10;1.00
1391;DHT22;690;51.454;7.194;2022-09-27T11:38:29;14.10;1.00
1391;DHT22;690;51.454;7.194;2022-09-27T11:41:09;14.10;1.00
1391;DHT22;690;51.454;7.194;2022-09-27T11:43:50;14.10;1.00
1391;DHT22;690;51.454;7.194;2022-09-27T11:46:23;14.00;1.00
1391;DHT22;690;51.454;7.194;2022-09-27T11:52:14;14.10;99.90
1391;DHT22;690;51.454;7.194;2022-09-27T11:54:59;14.20;99.90
1391;DHT22;690;51.454;7.194;2022-09-27T11:57:31;14.30;92.20
1391;DHT22;690;51.454;7.194;2022-09-27T12:00:18;14.30;21.00
1391;DHT22;690;51.454;7.194;2022-09-27T12:03:13;14.20;1.00
1391;DHT22;690;51.454;7.194;2022-09-27T12:05:56;14.20;1.00
1391;DHT22;690;51.454;7.194;2022-09-27T12:08:36;14.20;1.00
1391;DHT22;690;51.454;7.194;2022-09-27T12:11:09;14.10;1.00
1391;DHT22;690;51.454;7.194;2022-09-27T12:13:40;14.10;1.00
1391;DHT22;690;51.454;7.194;2022-09-27T12:16:09;14.00;1.00
1391;DHT22;690;51.454;7.194;2022-09-27T12:18:38;13.90;1.00
1391;DHT22;690;51.454;7.194;2022-09-27T12:21:09;13.90;1.00
1391;DHT22;690;51.454;7.194;2022-09-27T12:23:40;13.90;1.00
1391;DHT22;690;51.454;7.194;2022-09-27T12:26:11;14.00;1.00
1391;DHT22;690;51.454;7.194;2022-09-27T12:28:44;14.00;1.00
1391;DHT22;690;51.454;7.194;2022-09-27T12:31:16;14.10;1.00
1391;DHT22;690;51.454;7.194;2022-09-27T12:33:50;14.10;1.00
1391;DHT22;690;51.454;7.194;2022-09-27T12:36:23;14.10;1.00
1391;DHT22;690;51.454;7.194;2022-09-27T12:38:59;14.10;1.00
1391;DHT22;690;51.454;7.194;2022-09-27T12:41:32;14.00;1.00
1391;DHT22;690;51.454;7.194;2022-09-27T12:44:02;14.00;1.00
1391;DHT22;690;51.454;7.194;2022-09-27T12:46:39;14.00;1.00
1391;DHT22;690;51.454;7.194;2022-09-27T12:49:13;14.10;1.00
1391;DHT22;690;51.454;7.194;2022-09-27T12:51:45;14.10;1.00
1391;DHT22;690;51.454;7.194;2022-09-27T12:57:27;14.20;1.00
1391;DHT22;690;51.454;7.194;2022-09-27T13:00:04;14.20;1.00
1391;DHT22;690;51.454;7.194;2022-09-27T13:05:58;13.90;1.00
1391;DHT22;690;51.454;7.194;2022-09-27T13:11:34;13.70;1.00
1391;DHT22;690;51.454;7.194;2022-09-27T13:14:05;13.70;1.00
1391;DHT22;690;51.454;7.194;2022-09-27T13:16:41;13.60;1.00
1391;DHT22;690;51.454;7.194;2022-09-27T13:19:37;13.70;1.00
1391;DHT22;690;51.454;7.194;2022-09-27T13:22:05;13.80;21.20
1391;DHT22;690;51.454;7.194;2022-09-27T13:24:46;13.80;54.90
1391;DHT22;690;51.454;7.194;2022-09-27T13:27:41;13.80;99.90
1391;DHT22;690;51.454;7.194;2022-09-27T13:33:43;14.00;99.90
1391;DHT22;690;51.454;7.194;2022-09-27T13:36:18;14.10;99.90
1391;DHT22;690;51.454;7.194;2022-09-27T13:42:07;14.10;99.90
1391;DHT22;690;51.454;7.194;2022-09-27T13:44:46;14.10;99.90
1391;DHT22;690;51.454;7.194;2022-09-27T13:47:25;14.00;99.90
1391;DHT22;690;51.454;7.194;2022-09-27T13:49:58;14.00;99.90
1391;DHT22;690;51.454;7.194;2022-09-27T13:52:30;14.00;99.90
1391;DHT22;690;51.454;7.194;2022-09-27T13:55:00;13.90;99.90
1391;DHT22;690;51.454;7.194;2022-09-27T13:57:50;13.80;30.50
1391;DHT22;690;51.454;7.194;2022-09-27T14:00:21;13.80;1.00
1391;DHT22;690;51.454;7.194;2022-09-27T14:02:54;13.70;1.00
1391;DHT22;690;51.454;7.194;2022-09-27T14:05:27;13.70;1.00
1391;DHT22;690;51.454;7.194;2022-09-27T14:07:58;13.80;1.00
1391;DHT22;690;51.454;7.194;2022-09-27T14:10:28;13.80;1.00
1391;DHT22;690;51.454;7.194;2022-09-27T14:12:56;13.80;1.00
1391;DHT22;690;51.454;7.194;2022-09-27T14:15:28;13.80;1.00
1391;DHT22;690;51.454;7.194;2022-09-27T14:17:56;13.80;1.00
1391;DHT22;690;51.454;7.194;2022-09-27T14:20:35;13.70;1.00
1391;DHT22;690;51.454;7.194;2022-09-27T14:23:05;13.70;1.00
1391;DHT22;690;51.454;7.194;2022-09-27T14:25:32;13.70;1.00
1391;DHT22;690;51.454;7.194;2022-09-27T14:27:59;13.70;1.00
1391;DHT22;690;51.454;7.194;2022-09-27T14:30:28;13.80;1.00
1391;DHT22;690;51.454;7.194;2022-09-27T14:32:56;13.90;1.00
1391;DHT22;690;51.454;7.194;2022-09-27T14:35:27;14.00;1.00
1391;DHT22;690;51.454;7.194;2022-09-27T14:38:14;14.00;1.00
1391;DHT22;690;51.454;7.194;2022-09-27T14:40:43;14.00;1.00
1391;DHT22;690;51.454;7.194;2022-09-27T14:43:15;14.10;1.00
1391;DHT22;690;51.454;7.194;2022-09-27T14:45:46;14.20;1.00
1391;DHT22;690;51.454;7.194;2022-09-27T14:48:22;14.30;1.00
1391;DHT22;690;51.454;7.194;2022-09-27T14:50:54;14.30;1.00
1391;DHT22;690;51.454;7.194;2022-09-27T14:53:27;14.20;1.00
1391;DHT22;690;51.454;7.194;2022-09-27T14:55:54;14.30;1.00
1391;DHT22;690;51.454;7.194;2022-09-27T14:58:22;14.30;1.00
1391;DHT22;690;51.454;7.194;2022-09-27T15:00:51;14.20;1.00
1391;DHT22;690;51.454;7.194;2022-09-27T15:03:22;14.20;1.00
1391;DHT22;690;51.454;7.194;2022-09-27T15:05:51;14.30;1.00
1391;DHT22;690;51.454;7.194;2022-09-27T15:08:21;14.30;1.00
1391;DHT22;690;51.454;7.194;2022-09-27T15:10:49;14.30;1.00
1391;DHT22;690;51.454;7.194;2022-09-27T15:13:17;14.30;1.00
1391;DHT22;690;51.454;7.194;2022-09-27T15:15:45;14.30;1.00
1391;DHT22;690;51.454;7.194;2022-09-27T15:18:33;14.40;1.00
1391;DHT22;690;51.454;7.194;2022-09-27T15:21:05;14.30;1.00
1391;DHT22;690;51.454;7.194;2022-09-27T15:23:35;14.30;1.00
1391;DHT22;690;51.454;7.194;2022-09-27T15:26:07;14.20;1.00
1391;DHT22;690;51.454;7.194;2022-09-27T15:28:36;14.10;1.00
1391;DHT22;690;51.454;7.194;2022-09-27T15:31:05;14.20;1.00
1391;DHT22;690;51.454;7.194;2022-09-27T15:33:34;14.10;1.00
1391;DHT22;690;51.454;7.194;2022-09-27T15:36:04;14.10;1.00
1391;DHT22;690;51.454;7.194;2022-09-27T15:38:32;14.00;1.00
1391;DHT22;690;51.454;7.194;2022-09-27T15:41:05;13.90;1.00
1391;DHT22;690;51.454;7.194;2022-09-27T15:43:34;13.80;1.00
1391;DHT22;690;51.454;7.194;2022-09-27T15:46:04;13.80;1.00
1391;DHT22;690;51.454;7.194;2022-09-27T15:48:34;13.70;1.00
1391;DHT22;690;51.454;7.194;2022-09-27T15:51:02;13.70;1.00
1391;DHT22;690;51.454;7.194;2022-09-27T15:53:42;13.80;1.00
1391;DHT22;690;51.454;7.194;2022-09-27T15:56:12;13.70;1.00
1391;DHT22;690;51.454;7.194;2022-09-27T15:58:40;13.80;1.00
1391;DHT22;690;51.454;7.194;2022-09-27T16:01:18;13.80;1.00
1391;DHT22;690;51.454;7.194;2022-09-27T16:03:47;13.90;1.00
1391;DHT22;690;51.454;7.194;2022-09-27T16:06:15;13.90;1.00
1391;DHT22;690;51.454;7.194;2022-09-27T16:08:43;13.90;1.00
1391;DHT22;690;51.454;7.194;2022-09-27T16:11:14;13.90;1.00
1391;DHT22;690;51.454;7.194;2022-09-27T16:13:42;13.90;1.00
1391;DHT22;690;51.454;7.194;2022-09-27T16:16:14;13.90;1.00
1391;DHT22;690;51.454;7.194;2022-09-27T16:18:41;13.90;1.00
1391;DHT22;690;51.454;7.194;2022-09-27T16:21:10;13.90;1.00
1391;DHT22;690;51.454;7.194;2022-09-27T16:23:37;13.80;1.00
1391;DHT22;690;51.454;7.194;2022-09-27T16:26:04;13.80;1.00
1391;DHT22;690;51.454;7.194;2022-09-27T16:28:31;13.80;1.00
1391;DHT22;690;51.454;7.194;2022-09-27T16:31:05;13.80;1.00
1391;DHT22;690;51.454;7.194;2022-09-27T16:33:34;13.80;1.00
1391;DHT22;690;51.454;7.194;2022-09-27T16:36:05;13.80;1.00
1391;DHT22;690;51.454;7.194;2022-09-27T16:38:35;13.70;1.00
1391;DHT22;690;51.454;7.194;2022-09-27T16:41:02;13.70;1.00
1391;DHT22;690;51.454;7.194;2022-09-27T16:43:29;13.70;1.00
1391;DHT22;690;51.454;7.194;2022-09-27T16:46:03;13.70;1.00
1391;DHT22;690;51.454;7.194;2022-09-27T16:48:30;13.70;1.00
1391;DHT22;690;51.454;7.194;2022-09-27T16:51:03;13.60;1.00
1391;DHT22;690;51.454;7.194;2022-09-27T16:53:51;13.60;1.00
1391;DHT22;690;51.454;7.194;2022-09-27T16:56:19;13.50;1.00
1391;DHT22;690;51.454;7.194;2022-09-27T16:58:46;13.50;1.00
1391;DHT22;690;51.454;7.194;2022-09-27T17:01:13;13.50;1.00
1391;DHT22;690;51.454;7.194;2022-09-27T17:03:41;13.50;1.00
1391;DHT22;690;51.454;7.194;2022-09-27T17:06:09;13.40;1.00
1391;DHT22;690;51.454;7.194;2022-09-27T17:08:36;13.40;1.00
1391;DHT22;690;51.454;7.194;2022-09-27T17:11:04;13.30;1.00
1391;DHT22;690;51.454;7.194;2022-09-27T17:13:32;13.20;1.00
1391;DHT22;690;51.454;7.194;2022-09-27T17:16:03;13.20;1.00
1391;DHT22;690;51.454;7.194;2022-09-27T17:18:30;13.10;1.00
1391;DHT22;690;51.454;7.194;2022-09-27T17:21:00;13.10;1.00